createdAt,value
2018-06-21T00:00:49.488Z,977.17
2018-06-21T00:01:49.728Z,977.16
2018-06-21T00:02:49.966Z,977.14
2018-06-21T00:03:50.209Z,977.16
2018-06-21T00:04:50.444Z,977.12
2018-06-21T00:05:50.674Z,977.13
2018-06-21T00:06:50.916Z,977.06
2018-06-21T00:07:51.165Z,977.04
2018-06-21T00:08:51.415Z,977.06
2018-06-21T00:09:51.651Z,977.09
2018-06-21T00:10:51.920Z,977.10
2018-06-21T00:11:52.133Z,977.06
2018-06-21T00:12:52.405Z,977.03
2018-06-21T00:13:52.666Z,977.01
2018-06-21T00:14:52.878Z,977.01
2018-06-21T00:15:53.122Z,977.00
2018-06-21T00:16:53.365Z,976.93
2018-06-21T00:17:53.600Z,976.95
2018-06-21T00:18:53.840Z,976.99
2018-06-21T00:19:54.102Z,976.96
2018-06-21T00:20:54.304Z,976.95
2018-06-21T00:21:54.549Z,976.95
2018-06-21T00:22:54.797Z,976.97
2018-06-21T00:23:55.033Z,976.93
2018-06-21T00:24:55.262Z,976.92
2018-06-21T00:25:55.504Z,976.94
2018-06-21T00:26:55.741Z,976.90
2018-06-21T00:27:55.982Z,976.90
2018-06-21T00:28:56.226Z,976.89
2018-06-21T00:29:56.461Z,976.86
2018-06-21T00:30:56.708Z,976.83
2018-06-21T00:31:56.929Z,976.84
2018-06-21T00:32:57.157Z,976.80
2018-06-21T00:33:57.411Z,976.82
2018-06-21T00:34:57.654Z,976.80
2018-06-21T00:35:57.903Z,976.80
2018-06-21T00:36:58.147Z,976.78
2018-06-21T00:37:58.364Z,976.78
2018-06-21T00:38:58.604Z,976.73
2018-06-21T00:39:58.848Z,976.78
2018-06-21T00:40:59.082Z,976.75
2018-06-21T00:41:59.331Z,976.73
2018-06-21T00:42:59.570Z,976.70
2018-06-21T00:43:59.804Z,976.67
2018-06-21T00:45:00.045Z,976.68
2018-06-21T00:46:00.283Z,976.63
2018-06-21T00:47:00.522Z,976.58
2018-06-21T00:48:00.777Z,976.57
2018-06-21T00:49:01.028Z,976.57
2018-06-21T00:50:01.255Z,976.54
2018-06-21T00:51:01.489Z,976.59
2018-06-21T00:52:01.738Z,976.54
2018-06-21T00:53:01.969Z,976.51
2018-06-21T00:54:02.198Z,976.49
2018-06-21T00:55:02.441Z,976.53
2018-06-21T00:56:02.684Z,976.50
2018-06-21T00:57:02.925Z,976.46
2018-06-21T00:58:03.171Z,976.46
2018-06-21T00:59:03.392Z,976.44
2018-06-21T01:00:03.641Z,976.47
2018-06-21T01:01:03.863Z,976.48
2018-06-21T01:02:04.113Z,976.49
2018-06-21T01:03:04.339Z,976.48
2018-06-21T01:04:04.589Z,976.47
2018-06-21T01:05:04.830Z,976.52
2018-06-21T01:06:05.072Z,976.49
2018-06-21T01:07:05.298Z,976.44
2018-06-21T01:08:05.540Z,976.45
2018-06-21T01:09:05.786Z,976.42
2018-06-21T01:10:06.020Z,976.45
2018-06-21T01:11:06.273Z,976.46
2018-06-21T01:12:06.497Z,976.46
2018-06-21T01:13:06.736Z,976.45
2018-06-21T01:14:06.975Z,976.44
2018-06-21T01:15:07.207Z,976.45
2018-06-21T01:16:07.439Z,976.44
2018-06-21T01:17:07.664Z,976.44
2018-06-21T01:18:07.918Z,976.43
2018-06-21T01:19:08.168Z,976.42
2018-06-21T01:20:08.400Z,976.42
2018-06-21T01:21:08.640Z,976.43
2018-06-21T01:22:08.880Z,976.46
2018-06-21T01:23:09.120Z,976.44
2018-06-21T01:24:09.363Z,976.44
2018-06-21T01:25:09.603Z,976.46
2018-06-21T01:26:09.842Z,976.39
2018-06-21T01:27:10.080Z,976.40
2018-06-21T01:28:10.317Z,976.40
2018-06-21T01:29:10.547Z,976.37
2018-06-21T01:30:10.796Z,976.36
2018-06-21T01:31:11.031Z,976.34
2018-06-21T01:32:11.266Z,976.34
2018-06-21T01:33:11.510Z,976.32
2018-06-21T01:34:11.740Z,976.31
2018-06-21T01:35:11.984Z,976.36
2018-06-21T01:36:12.216Z,976.31
2018-06-21T01:37:12.457Z,976.35
2018-06-21T01:38:12.687Z,976.37
2018-06-21T01:39:12.940Z,976.33
2018-06-21T01:40:13.158Z,976.34
2018-06-21T01:41:13.394Z,976.33
2018-06-21T01:42:13.635Z,976.31
2018-06-21T01:43:13.879Z,976.33
2018-06-21T01:44:14.103Z,976.32
2018-06-21T01:45:14.352Z,976.29
2018-06-21T01:46:14.567Z,976.34
2018-06-21T01:47:14.805Z,976.35
2018-06-21T01:48:15.044Z,976.28
2018-06-21T01:49:15.282Z,976.27
2018-06-21T01:50:15.520Z,976.28
2018-06-21T01:51:15.759Z,976.31
2018-06-21T01:52:15.983Z,976.28
2018-06-21T01:53:16.221Z,976.29
2018-06-21T01:54:16.453Z,976.33
2018-06-21T01:55:16.701Z,976.32
2018-06-21T01:56:16.950Z,976.28
2018-06-21T01:57:17.182Z,976.29
2018-06-21T01:58:17.405Z,976.28
2018-06-21T01:59:17.641Z,976.25
2018-06-21T02:00:17.879Z,976.26
2018-06-21T02:01:18.138Z,976.23
2018-06-21T02:02:18.349Z,976.22
2018-06-21T02:03:18.586Z,976.27
2018-06-21T02:04:18.824Z,976.28
2018-06-21T02:05:19.052Z,976.24
2018-06-21T02:06:19.299Z,976.27
2018-06-21T02:07:19.538Z,976.20
2018-06-21T02:08:19.763Z,976.23
2018-06-21T02:09:19.992Z,976.20
2018-06-21T02:10:20.228Z,976.18
2018-06-21T02:11:20.468Z,976.17
2018-06-21T02:12:20.713Z,976.15
2018-06-21T02:13:20.924Z,976.12
2018-06-21T02:14:21.158Z,976.13
2018-06-21T02:15:21.392Z,976.09
2018-06-21T02:16:21.638Z,976.08
2018-06-21T02:17:21.883Z,976.08
2018-06-21T02:18:22.108Z,976.05
2018-06-21T02:19:22.357Z,976.05
2018-06-21T02:20:22.597Z,976.03
2018-06-21T02:21:22.827Z,976.00
2018-06-21T02:22:23.080Z,976.01
2018-06-21T02:23:23.307Z,976.00
2018-06-21T02:24:23.553Z,975.97
2018-06-21T02:25:23.777Z,975.95
2018-06-21T02:26:24.015Z,975.96
2018-06-21T02:27:24.277Z,975.97
2018-06-21T02:28:24.517Z,975.94
2018-06-21T02:29:24.759Z,975.90
2018-06-21T02:30:25.002Z,975.89
2018-06-21T02:31:25.248Z,975.85
2018-06-21T02:32:25.463Z,975.85
2018-06-21T02:33:25.699Z,975.81
2018-06-21T02:34:26.003Z,975.81
2018-06-21T02:35:26.165Z,975.80
2018-06-21T02:36:26.397Z,975.78
2018-06-21T02:37:26.646Z,975.82
2018-06-21T02:38:26.871Z,975.78
2018-06-21T02:39:27.131Z,975.75
2018-06-21T02:40:27.349Z,975.73
2018-06-21T02:41:27.575Z,975.73
2018-06-21T02:42:27.817Z,975.74
2018-06-21T02:43:28.051Z,975.71
2018-06-21T02:44:28.292Z,975.75
2018-06-21T02:45:28.523Z,975.73
2018-06-21T02:46:28.788Z,975.70
2018-06-21T02:47:28.992Z,975.69
2018-06-21T02:48:29.211Z,975.68
2018-06-21T02:49:29.454Z,975.68
2018-06-21T02:50:29.677Z,975.69
2018-06-21T02:51:29.935Z,975.68
2018-06-21T02:52:30.150Z,975.69
2018-06-21T02:53:30.400Z,975.66
2018-06-21T02:54:30.637Z,975.68
2018-06-21T02:55:30.869Z,975.65
2018-06-21T02:56:31.109Z,975.73
2018-06-21T02:57:31.355Z,975.69
2018-06-21T02:58:31.584Z,975.69
2018-06-21T02:59:31.832Z,975.69
2018-06-21T03:00:32.041Z,975.65
2018-06-21T03:01:32.276Z,975.65
2018-06-21T03:02:32.515Z,975.63
2018-06-21T03:03:32.745Z,975.61
2018-06-21T03:04:32.968Z,975.60
2018-06-21T03:05:33.211Z,975.57
2018-06-21T03:06:33.457Z,975.56
2018-06-21T03:07:33.687Z,975.54
2018-06-21T03:08:33.936Z,975.54
2018-06-21T03:09:34.177Z,975.55
2018-06-21T03:10:34.407Z,975.50
2018-06-21T03:11:34.650Z,975.47
2018-06-21T03:12:34.884Z,975.52
2018-06-21T03:13:35.129Z,975.50
2018-06-21T03:14:35.366Z,975.50
2018-06-21T03:15:35.609Z,975.50
2018-06-21T03:16:35.845Z,975.47
2018-06-21T03:17:36.093Z,975.48
2018-06-21T03:18:36.335Z,975.47
2018-06-21T03:19:36.581Z,975.45
2018-06-21T03:20:36.838Z,975.46
2018-06-21T03:21:37.039Z,975.48
2018-06-21T03:22:37.281Z,975.50
2018-06-21T03:23:37.525Z,975.47
2018-06-21T03:24:37.767Z,975.48
2018-06-21T03:25:38.011Z,975.47
2018-06-21T03:26:38.252Z,975.44
2018-06-21T03:27:38.509Z,975.43
2018-06-21T03:28:38.731Z,975.40
2018-06-21T03:29:38.988Z,975.39
2018-06-21T03:30:39.208Z,975.39
2018-06-21T03:31:39.444Z,975.38
2018-06-21T03:32:39.679Z,975.35
2018-06-21T03:33:39.915Z,975.30
2018-06-21T03:34:40.160Z,975.31
2018-06-21T03:35:40.402Z,975.28
2018-06-21T03:36:40.644Z,975.28
2018-06-21T03:37:40.886Z,975.21
2018-06-21T03:38:41.127Z,975.22
2018-06-21T03:39:41.362Z,975.21
2018-06-21T03:40:41.604Z,975.18
2018-06-21T03:41:41.841Z,975.16
2018-06-21T03:42:42.079Z,975.12
2018-06-21T03:43:42.321Z,975.10
2018-06-21T03:44:42.567Z,975.08
2018-06-21T03:45:42.798Z,975.07
2018-06-21T03:46:43.038Z,975.06
2018-06-21T03:47:43.280Z,975.09
2018-06-21T03:48:43.523Z,975.07
2018-06-21T03:49:43.764Z,975.02
2018-06-21T03:50:44.008Z,975.06
2018-06-21T03:51:44.243Z,975.06
2018-06-21T03:52:44.477Z,975.02
2018-06-21T03:53:44.713Z,975.04
2018-06-21T03:54:44.954Z,975.02
2018-06-21T03:55:45.184Z,974.98
2018-06-21T03:56:45.422Z,974.95
2018-06-21T03:57:45.653Z,974.93
2018-06-21T03:58:45.897Z,974.95
2018-06-21T03:59:46.135Z,974.95
2018-06-21T04:00:46.369Z,974.95
2018-06-21T04:01:46.608Z,974.97
2018-06-21T04:02:46.849Z,974.96
2018-06-21T04:03:47.067Z,974.92
2018-06-21T04:04:47.329Z,974.94
2018-06-21T04:05:47.570Z,974.94
2018-06-21T04:06:47.804Z,974.93
2018-06-21T04:07:48.043Z,974.89
2018-06-21T04:08:48.270Z,974.88
2018-06-21T04:09:48.520Z,974.87
2018-06-21T04:10:48.896Z,974.87
2018-06-21T04:11:49.428Z,974.90
2018-06-21T04:12:49.526Z,974.91
2018-06-21T04:13:49.754Z,974.93
2018-06-21T04:14:50.004Z,974.91
2018-06-21T04:15:50.254Z,974.90
2018-06-21T04:16:50.476Z,974.88
2018-06-21T04:17:50.735Z,974.84
2018-06-21T04:18:50.990Z,974.82
2018-06-21T04:19:51.217Z,974.79
2018-06-21T04:20:51.467Z,974.78
2018-06-21T04:21:51.698Z,974.77
2018-06-21T04:22:51.952Z,974.75
2018-06-21T04:23:52.337Z,974.75
2018-06-21T04:24:52.584Z,974.79
2018-06-21T04:25:52.825Z,974.76
2018-06-21T04:26:53.072Z,974.72
2018-06-21T04:27:53.325Z,974.74
2018-06-21T04:28:53.547Z,974.78
2018-06-21T04:29:53.778Z,974.74
2018-06-21T04:30:54.033Z,974.74
2018-06-21T04:31:54.277Z,974.76
2018-06-21T04:32:54.495Z,974.70
2018-06-21T04:33:54.756Z,974.69
2018-06-21T04:34:54.973Z,974.67
2018-06-21T04:35:55.205Z,974.67
2018-06-21T04:36:55.447Z,974.68
2018-06-21T04:37:55.741Z,974.69
2018-06-21T04:38:55.936Z,974.63
2018-06-21T04:39:56.179Z,974.62
2018-06-21T04:40:56.412Z,974.65
2018-06-21T04:41:56.643Z,974.70
2018-06-21T04:42:56.882Z,974.73
2018-06-21T04:43:57.122Z,974.67
2018-06-21T04:44:57.369Z,974.64
2018-06-21T04:45:57.721Z,974.64
2018-06-21T04:46:57.853Z,974.64
2018-06-21T04:47:58.098Z,974.66
2018-06-21T04:48:58.347Z,974.66
2018-06-21T04:49:58.578Z,974.68
2018-06-21T04:50:58.824Z,974.66
2018-06-21T04:51:59.061Z,974.64
2018-06-21T04:52:59.310Z,974.65
2018-06-21T04:53:59.541Z,974.68
2018-06-21T04:54:59.797Z,974.69
2018-06-21T04:56:00.032Z,974.70
2018-06-21T04:57:00.246Z,974.64
2018-06-21T04:58:00.489Z,974.70
2018-06-21T04:59:00.740Z,974.71
2018-06-21T05:00:00.994Z,974.72
2018-06-21T05:01:01.222Z,974.74
2018-06-21T05:02:01.451Z,974.72
2018-06-21T05:03:01.691Z,974.76
2018-06-21T05:04:01.932Z,974.76
2018-06-21T05:05:02.181Z,974.75
2018-06-21T05:06:02.410Z,974.73
2018-06-21T05:07:02.660Z,974.78
2018-06-21T05:08:02.888Z,974.79
2018-06-21T05:09:03.138Z,974.76
2018-06-21T05:10:03.388Z,974.78
2018-06-21T05:11:03.626Z,974.81
2018-06-21T05:12:04.179Z,974.82
2018-06-21T05:13:04.191Z,974.81
2018-06-21T05:14:04.445Z,974.84
2018-06-21T05:15:04.677Z,974.79
2018-06-21T05:16:04.919Z,974.81
2018-06-21T05:17:05.145Z,974.78
2018-06-21T05:18:05.398Z,974.78
2018-06-21T05:19:05.642Z,974.76
2018-06-21T05:20:05.885Z,974.80
2018-06-21T05:21:06.123Z,974.80
2018-06-21T05:22:06.360Z,974.83
2018-06-21T05:23:06.600Z,974.86
2018-06-21T05:24:06.848Z,974.89
2018-06-21T05:25:07.120Z,974.89
2018-06-21T05:26:07.335Z,974.94
2018-06-21T05:27:07.582Z,974.90
2018-06-21T05:28:07.825Z,974.88
2018-06-21T05:29:08.067Z,974.90
2018-06-21T05:30:08.313Z,974.91
2018-06-21T05:31:08.544Z,974.90
2018-06-21T05:32:08.780Z,974.89
2018-06-21T05:33:09.018Z,974.92
2018-06-21T05:34:09.247Z,974.91
2018-06-21T05:35:09.493Z,974.89
2018-06-21T05:36:09.735Z,974.87
2018-06-21T05:37:09.983Z,974.91
2018-06-21T05:38:10.226Z,974.85
2018-06-21T05:39:10.519Z,974.86
2018-06-21T05:40:10.702Z,974.84
2018-06-21T05:41:10.951Z,974.90
2018-06-21T05:42:11.192Z,974.88
2018-06-21T05:43:11.418Z,974.92
2018-06-21T05:44:20.317Z,974.96
2018-06-21T05:45:12.049Z,974.97
2018-06-21T05:46:12.296Z,974.95
2018-06-21T05:47:12.539Z,974.98
2018-06-21T05:48:12.787Z,974.96
2018-06-21T05:49:13.025Z,974.99
2018-06-21T05:50:13.330Z,974.94
2018-06-21T05:51:22.144Z,974.93
2018-06-21T05:52:13.902Z,974.92
2018-06-21T05:53:14.146Z,974.92
2018-06-21T05:54:14.385Z,974.90
2018-06-21T05:55:14.615Z,974.87
2018-06-21T05:56:14.859Z,974.80
2018-06-21T05:57:15.107Z,974.88
2018-06-21T05:58:15.339Z,974.87
2018-06-21T05:59:15.582Z,974.90
2018-06-21T06:00:15.824Z,974.81
2018-06-21T06:01:16.066Z,974.85
2018-06-21T06:02:16.302Z,974.83
2018-06-21T06:03:16.564Z,974.80
2018-06-21T06:04:16.796Z,974.82
2018-06-21T06:05:17.013Z,974.81
2018-06-21T06:06:17.248Z,974.77
2018-06-21T06:07:17.492Z,974.74
2018-06-21T06:08:17.755Z,974.79
2018-06-21T06:09:25.588Z,974.76
2018-06-21T06:10:18.245Z,974.80
2018-06-21T06:11:18.499Z,974.73
2018-06-21T06:12:18.741Z,974.71
2018-06-21T06:13:18.984Z,974.71
2018-06-21T06:14:27.881Z,974.73
2018-06-21T06:15:19.622Z,974.77
2018-06-21T06:16:27.502Z,974.81
2018-06-21T06:17:20.177Z,974.76
2018-06-21T06:18:20.393Z,974.71
2018-06-21T06:19:20.630Z,974.77
2018-06-21T06:20:20.884Z,974.64
2018-06-21T06:21:21.116Z,974.71
2018-06-21T06:22:21.347Z,974.75
2018-06-21T06:23:21.610Z,974.64
2018-06-21T06:24:21.841Z,974.68
2018-06-21T06:25:22.075Z,974.64
2018-06-21T06:26:22.331Z,974.61
2018-06-21T06:27:22.577Z,974.62
2018-06-21T06:28:22.828Z,974.62
2018-06-21T06:29:23.069Z,974.66
2018-06-21T06:30:31.939Z,974.59
2018-06-21T06:31:23.704Z,974.64
2018-06-21T06:32:32.670Z,974.66
2018-06-21T06:33:32.962Z,974.69
2018-06-21T06:34:33.410Z,974.63
2018-06-21T06:35:25.157Z,974.64
2018-06-21T06:36:34.094Z,974.64
2018-06-21T06:37:34.328Z,974.64
2018-06-21T06:38:33.814Z,974.60
2018-06-21T06:39:35.104Z,974.61
2018-06-21T06:40:34.530Z,974.62
2018-06-21T06:41:36.777Z,974.51
2018-06-21T06:42:36.989Z,974.57
2018-06-21T06:43:36.276Z,974.74
2018-06-21T06:44:36.551Z,974.53
2018-06-21T06:45:36.844Z,974.64
2018-06-21T06:46:28.673Z,974.61
2018-06-21T06:47:37.609Z,974.54
2018-06-21T06:48:37.929Z,974.56
2018-06-21T06:49:38.273Z,974.49
2018-06-21T06:50:37.630Z,974.45
2018-06-21T06:51:38.938Z,974.55
2018-06-21T06:52:38.383Z,974.51
2018-06-21T06:53:39.611Z,974.55
2018-06-21T06:54:31.397Z,974.56
2018-06-21T06:55:31.607Z,974.54
2018-06-21T06:56:31.850Z,974.61
2018-06-21T06:57:39.776Z,974.62
2018-06-21T06:58:41.154Z,974.54
2018-06-21T06:59:41.489Z,974.54
2018-06-21T07:00:42.838Z,974.53
2018-06-21T07:01:41.073Z,974.60
2018-06-21T07:02:43.531Z,974.51
2018-06-21T07:05:36.868Z,974.50
2018-06-21T07:06:08.508Z,974.49
2018-06-21T07:07:08.608Z,974.47
2018-06-21T07:08:08.880Z,974.51
2018-06-21T07:09:16.957Z,974.46
2018-06-21T07:10:09.364Z,974.51
2018-06-21T07:11:18.140Z,974.49
2018-06-21T07:12:19.566Z,974.45
2018-06-21T07:13:19.885Z,974.38
2018-06-21T07:14:19.138Z,974.39
2018-06-21T07:15:20.670Z,974.35
2018-06-21T07:16:18.724Z,974.42
2018-06-21T07:17:11.403Z,974.41
2018-06-21T07:18:11.649Z,974.35
2018-06-21T07:19:11.891Z,974.41
2018-06-21T07:20:12.132Z,974.38
2018-06-21T07:21:12.381Z,974.44
2018-06-21T07:22:12.632Z,974.32
2018-06-21T07:23:12.873Z,974.35
2018-06-21T07:24:13.105Z,974.38
2018-06-21T07:25:13.345Z,974.46
2018-06-21T07:26:13.593Z,974.39
2018-06-21T07:27:13.907Z,974.35
2018-06-21T07:28:14.088Z,974.38
2018-06-21T07:29:14.337Z,974.37
2018-06-21T07:30:14.594Z,974.39
2018-06-21T07:31:14.834Z,974.41
2018-06-21T07:32:15.075Z,974.36
2018-06-21T07:33:15.306Z,974.29
2018-06-21T07:34:15.541Z,974.47
2018-06-21T07:35:15.781Z,974.39
2018-06-21T07:36:16.016Z,974.34
2018-06-21T07:37:16.265Z,974.33
2018-06-21T07:38:16.517Z,974.38
2018-06-21T07:39:16.772Z,974.37
2018-06-21T07:40:17.030Z,974.35
2018-06-21T07:41:17.279Z,974.30
2018-06-21T07:42:17.511Z,974.40
2018-06-21T07:43:17.763Z,974.36
2018-06-21T07:44:18.032Z,974.30
2018-06-21T07:45:18.301Z,974.35
2018-06-21T07:46:18.534Z,974.30
2018-06-21T07:47:18.770Z,974.28
2018-06-21T07:48:19.027Z,974.25
2018-06-21T07:49:19.266Z,974.25
2018-06-21T07:50:19.504Z,974.30
2018-06-21T07:51:19.757Z,974.32
2018-06-21T07:52:20.005Z,974.32
2018-06-21T07:53:20.263Z,974.32
2018-06-21T07:54:20.482Z,974.17
2018-06-21T07:55:20.734Z,974.27
2018-06-21T07:56:20.995Z,974.21
2018-06-21T07:57:21.224Z,974.27
2018-06-21T07:58:21.482Z,974.25
2018-06-21T07:59:21.718Z,974.20
2018-06-21T08:00:21.989Z,974.26
2018-06-21T08:01:22.235Z,974.12
2018-06-21T08:02:22.497Z,974.08
2018-06-21T08:03:22.731Z,974.11
2018-06-21T08:04:22.978Z,974.21
2018-06-21T08:05:23.209Z,974.22
2018-06-21T08:06:23.440Z,974.21
2018-06-21T08:07:23.709Z,974.24
2018-06-21T08:08:23.947Z,974.26
2018-06-21T08:09:24.206Z,974.29
2018-06-21T08:10:24.433Z,974.28
2018-06-21T08:11:24.664Z,974.23
2018-06-21T08:12:24.914Z,974.24
2018-06-21T08:13:25.174Z,974.22
2018-06-21T08:14:25.411Z,974.35
2018-06-21T08:15:25.644Z,974.23
2018-06-21T08:16:25.889Z,974.28
2018-06-21T08:17:26.115Z,974.37
2018-06-21T08:18:26.391Z,974.25
2018-06-21T08:19:26.637Z,974.14
2018-06-21T08:20:26.867Z,974.12
2018-06-21T08:21:27.121Z,974.19
2018-06-21T08:22:27.357Z,974.24
2018-06-21T08:23:27.598Z,974.23
2018-06-21T08:24:27.838Z,974.23
2018-06-21T08:25:28.125Z,974.31
2018-06-21T08:26:37.126Z,974.23
2018-06-21T08:27:38.008Z,974.24
2018-06-21T08:28:29.156Z,974.19
2018-06-21T08:29:39.059Z,974.27
2018-06-21T08:30:39.585Z,974.28
2018-06-21T08:31:38.862Z,974.29
2018-06-21T08:32:30.269Z,974.34
2018-06-21T08:33:39.346Z,974.40
2018-06-21T08:34:40.789Z,974.37
2018-06-21T08:35:41.198Z,974.24
2018-06-21T08:36:31.525Z,974.24
2018-06-21T08:37:31.758Z,974.25
2018-06-21T08:38:32.017Z,974.23
2018-06-21T08:39:41.906Z,974.25
2018-06-21T08:40:32.561Z,974.26
2018-06-21T08:41:32.722Z,974.29
2018-06-21T08:42:42.616Z,974.27
2018-06-21T08:43:33.264Z,974.30
2018-06-21T08:44:33.539Z,974.31
2018-06-21T08:45:42.407Z,974.27
2018-06-21T08:46:42.835Z,974.23
2018-06-21T08:47:43.147Z,974.30
2018-06-21T08:48:34.908Z,974.40
2018-06-21T08:49:35.102Z,974.34
2018-06-21T08:50:44.040Z,974.50
2018-06-21T08:51:44.383Z,974.48
2018-06-21T08:52:36.249Z,974.49
2018-06-21T08:53:45.077Z,974.46
2018-06-21T08:54:45.395Z,974.47
2018-06-21T08:55:37.137Z,974.45
2018-06-21T08:56:37.351Z,974.47
2018-06-21T08:57:37.605Z,974.45
2018-06-21T08:58:37.839Z,974.37
2018-06-21T08:59:38.094Z,974.46
2018-06-21T09:00:38.321Z,974.53
2018-06-21T09:01:47.258Z,974.52
2018-06-21T09:02:38.993Z,974.45
2018-06-21T09:03:39.227Z,974.48
2018-06-21T09:04:48.116Z,974.45
2018-06-21T09:05:39.840Z,974.37
2018-06-21T09:06:40.107Z,974.53
2018-06-21T09:07:40.376Z,974.45
2018-06-21T09:08:40.596Z,974.48
2018-06-21T09:09:48.562Z,974.58
2018-06-21T09:10:49.800Z,974.48
2018-06-21T09:11:51.328Z,974.47
2018-06-21T09:12:50.515Z,974.44
2018-06-21T09:13:42.215Z,974.47
2018-06-21T09:14:50.093Z,974.42
2018-06-21T09:15:42.833Z,974.45
2018-06-21T09:16:51.663Z,974.50
2018-06-21T09:17:52.079Z,974.50
2018-06-21T09:18:43.553Z,974.55
2018-06-21T09:19:43.855Z,974.44
2018-06-21T09:20:44.030Z,974.47
2018-06-21T09:21:52.904Z,974.35
2018-06-21T09:22:44.675Z,974.45
2018-06-21T09:23:44.901Z,974.42
2018-06-21T09:24:45.174Z,974.42
2018-06-21T09:25:55.050Z,974.31
2018-06-21T09:26:45.654Z,974.47
2018-06-21T09:27:54.484Z,974.42
2018-06-21T09:28:53.927Z,974.45
2018-06-21T09:29:46.601Z,974.56
2018-06-21T09:30:54.472Z,974.51
2018-06-21T09:31:55.756Z,974.60
2018-06-21T09:32:47.547Z,974.52
2018-06-21T09:33:47.770Z,974.54
2018-06-21T09:34:48.023Z,974.53
2018-06-21T09:35:56.893Z,974.37
2018-06-21T09:36:48.672Z,974.40
2018-06-21T09:37:57.505Z,974.36
2018-06-21T09:38:57.914Z,974.49
2018-06-21T09:39:58.263Z,974.36
2018-06-21T09:40:50.045Z,974.54
2018-06-21T09:41:57.918Z,974.50
2018-06-21T09:42:59.337Z,974.48
2018-06-21T09:44:03.829Z,974.54
2018-06-21T09:44:59.964Z,974.53
2018-06-21T09:45:51.717Z,974.53
2018-06-21T09:46:51.970Z,974.63
2018-06-21T09:48:00.813Z,974.52
2018-06-21T09:48:52.577Z,974.55
2018-06-21T09:50:00.620Z,974.49
2018-06-21T09:51:01.825Z,974.51
2018-06-21T09:52:02.194Z,974.52
2018-06-21T09:53:02.623Z,974.53
2018-06-21T09:54:02.099Z,974.53
2018-06-21T09:54:54.664Z,974.36
2018-06-21T09:55:54.906Z,974.49
2018-06-21T09:56:55.166Z,974.51
2018-06-21T09:57:55.399Z,974.54
2018-06-21T09:58:55.662Z,974.53
2018-06-21T09:59:55.900Z,974.56
2018-06-21T10:00:56.127Z,974.65
2018-06-21T10:02:05.032Z,974.75
2018-06-21T10:03:05.417Z,974.72
2018-06-21T10:03:56.961Z,974.59
2018-06-21T10:04:57.208Z,974.59
2018-06-21T10:05:57.459Z,974.82
2018-06-21T10:06:57.700Z,974.58
2018-06-21T10:07:57.950Z,974.65
2018-06-21T10:08:58.195Z,974.77
2018-06-21T10:10:07.072Z,974.81
2018-06-21T10:11:07.502Z,974.79
2018-06-21T10:12:08.890Z,974.76
2018-06-21T10:13:08.236Z,974.88
2018-06-21T10:13:59.884Z,974.89
2018-06-21T10:15:00.085Z,974.89
2018-06-21T10:16:09.030Z,974.95
2018-06-21T10:17:00.613Z,974.97
2018-06-21T10:18:09.449Z,975.05
2018-06-21T10:19:08.983Z,975.03
2018-06-21T10:20:10.111Z,975.11
2018-06-21T10:21:10.498Z,975.15
2018-06-21T10:22:10.873Z,975.13
2018-06-21T10:23:02.672Z,975.05
2018-06-21T10:24:02.891Z,975.07
2018-06-21T10:25:11.787Z,975.09
2018-06-21T10:26:03.604Z,975.12
2018-06-21T10:27:12.395Z,975.16
2018-06-21T10:28:12.808Z,975.20
2018-06-21T10:29:13.194Z,975.16
2018-06-21T10:30:13.576Z,975.20
2018-06-21T10:31:13.935Z,975.08
2018-06-21T10:32:05.714Z,975.11
2018-06-21T10:33:05.929Z,975.05
2018-06-21T10:34:06.141Z,975.19
2018-06-21T10:35:14.034Z,975.38
2018-06-21T10:36:06.689Z,975.10
2018-06-21T10:37:06.936Z,975.27
2018-06-21T10:38:07.186Z,975.39
2018-06-21T10:39:07.415Z,975.41
2018-06-21T10:40:07.657Z,975.47
2018-06-21T10:41:07.901Z,975.49
2018-06-21T10:42:08.149Z,975.59
2018-06-21T10:43:16.085Z,975.68
2018-06-21T10:44:17.528Z,975.75
2018-06-21T10:45:17.697Z,975.60
2018-06-21T10:46:18.144Z,975.56
2018-06-21T10:47:18.204Z,975.52
2018-06-21T10:48:18.661Z,975.58
2018-06-21T10:49:19.009Z,975.55
2018-06-21T10:50:19.408Z,975.58
2018-06-21T10:51:19.865Z,975.62
2018-06-21T10:52:19.962Z,975.59
2018-06-21T10:53:20.447Z,975.62
2018-06-21T10:54:20.739Z,975.63
2018-06-21T10:55:21.114Z,975.63
2018-06-21T10:56:21.524Z,975.65
2018-06-21T10:57:21.887Z,975.71
2018-06-21T10:58:22.253Z,975.71
2018-06-21T10:59:22.722Z,975.68
2018-06-21T11:00:24.101Z,975.69
2018-06-21T11:01:23.336Z,975.75
2018-06-21T11:02:23.715Z,975.68
2018-06-21T11:03:24.117Z,975.69
2018-06-21T11:04:24.606Z,975.67
2018-06-21T11:05:24.853Z,975.74
2018-06-21T11:06:25.359Z,975.71
2018-06-21T11:07:26.647Z,975.75
2018-06-21T11:08:25.940Z,975.78
2018-06-21T11:09:26.312Z,975.79
2018-06-21T11:10:26.882Z,975.85
2018-06-21T11:11:26.961Z,975.87
2018-06-21T11:12:27.354Z,975.87
2018-06-21T11:13:19.166Z,975.90
2018-06-21T11:14:28.023Z,975.82
2018-06-21T11:15:28.197Z,975.91
2018-06-21T11:16:28.625Z,975.89
2018-06-21T11:17:28.949Z,975.95
2018-06-21T11:18:20.756Z,975.88
2018-06-21T11:19:29.609Z,975.94
2018-06-21T11:20:21.318Z,975.95
2018-06-21T11:21:30.214Z,976.01
2018-06-21T11:22:30.586Z,975.94
2018-06-21T11:23:31.006Z,976.04
2018-06-21T11:24:22.745Z,976.10
2018-06-21T11:25:32.618Z,976.28
2018-06-21T11:26:31.876Z,976.51
2018-06-21T11:27:23.647Z,976.31
2018-06-21T11:28:32.459Z,976.08
2018-06-21T11:29:24.260Z,975.80
2018-06-21T11:30:33.155Z,975.72
2018-06-21T11:31:24.835Z,975.88
2018-06-21T11:32:25.078Z,975.90
2018-06-21T11:33:25.325Z,975.83
2018-06-21T11:34:25.553Z,975.83
2018-06-21T11:35:25.812Z,975.98
2018-06-21T11:36:26.698Z,976.00
2018-06-21T11:37:26.371Z,975.83
2018-06-21T11:38:26.637Z,975.94
2018-06-21T11:39:26.877Z,975.77
2018-06-21T11:40:27.124Z,975.79
2018-06-21T11:41:27.368Z,975.66
2018-06-21T11:42:27.603Z,975.76
2018-06-21T11:43:27.852Z,975.72
2018-06-21T11:44:28.104Z,975.77
2018-06-21T11:45:28.367Z,975.88
2018-06-21T11:46:28.631Z,975.95
2018-06-21T11:47:28.850Z,976.09
2018-06-21T11:48:29.092Z,976.04
2018-06-21T11:49:29.338Z,976.14
2018-06-21T11:50:29.587Z,976.18
2018-06-21T11:51:29.828Z,976.27
2018-06-21T11:52:30.070Z,976.08
2018-06-21T11:53:30.311Z,976.13
2018-06-21T11:54:30.568Z,976.30
2018-06-21T11:55:30.828Z,976.12
2018-06-21T11:56:31.166Z,976.19
2018-06-21T11:57:31.339Z,976.15
2018-06-21T11:58:31.584Z,975.90
2018-06-21T11:59:31.840Z,976.26
2018-06-21T12:00:32.085Z,976.01
2018-06-21T12:01:32.335Z,976.18
2018-06-21T12:02:32.577Z,976.14
2018-06-21T12:03:32.843Z,975.86
2018-06-21T12:04:33.117Z,976.20
2018-06-21T12:05:33.357Z,975.92
2018-06-21T12:06:33.605Z,976.09
2018-06-21T12:07:33.853Z,976.01
2018-06-21T12:08:34.107Z,976.16
2018-06-21T12:09:34.345Z,975.72
2018-06-21T12:10:34.613Z,975.79
2018-06-21T12:11:34.860Z,975.82
2018-06-21T12:12:44.736Z,975.72
2018-06-21T12:13:35.374Z,975.78
2018-06-21T12:14:35.683Z,975.71
2018-06-21T12:15:35.836Z,975.74
2018-06-21T12:16:36.113Z,976.19
2018-06-21T12:17:36.344Z,976.19
2018-06-21T12:18:36.634Z,976.07
2018-06-21T12:19:36.842Z,975.90
2018-06-21T12:20:37.113Z,976.05
2018-06-21T12:21:37.323Z,976.24
2018-06-21T12:22:47.219Z,976.00
2018-06-21T12:23:37.814Z,976.01
2018-06-21T12:24:38.085Z,976.16
2018-06-21T12:25:38.301Z,975.88
2018-06-21T12:26:38.554Z,975.83
2018-06-21T12:27:38.811Z,975.83
2018-06-21T12:28:47.709Z,975.88
2018-06-21T12:29:39.554Z,976.28
2018-06-21T12:30:39.685Z,976.15
2018-06-21T12:31:48.554Z,975.83
2018-06-21T12:32:40.330Z,975.79
2018-06-21T12:33:40.584Z,976.17